sensor_id;sensor_type;location;lat;lon;timestamp;P1;durP1;ratioP1;P2;durP2;ratioP2
63259;SDS011;49390;51.380;0.098;2024-02-21T00:00:19;8.02;;;2.80;;
63259;SDS011;49390;51.380;0.098;2024-02-21T00:03:07;11.68;;;3.38;;
63259;SDS011;49390;51.380;0.098;2024-02-21T00:05:35;10.98;;;3.15;;
63259;SDS011;49390;51.380;0.098;2024-02-21T00:08:03;13.00;;;4.00;;
63259;SDS011;49390;51.380;0.098;2024-02-21T00:10:31;9.85;;;2.90;;
63259;SDS011;49390;51.380;0.098;2024-02-21T00:13:00;8.85;;;3.70;;
63259;SDS011;49390;51.380;0.098;2024-02-21T00:15:28;7.00;;;2.90;;
63259;SDS011;49390;51.380;0.098;2024-02-21T00:17:56;9.68;;;3.88;;
63259;SDS011;49390;51.380;0.098;2024-02-21T00:20:24;13.38;;;3.53;;
63259;SDS011;49390;51.380;0.098;2024-02-21T00:22:53;10.70;;;2.80;;
63259;SDS011;49390;51.380;0.098;2024-02-21T00:25:22;8.18;;;3.65;;
63259;SDS011;49390;51.380;0.098;2024-02-21T00:27:50;9.73;;;3.17;;
63259;SDS011;49390;51.380;0.098;2024-02-21T00:30:18;8.52;;;2.88;;
63259;SDS011;49390;51.380;0.098;2024-02-21T00:32:47;13.55;;;2.85;;
63259;SDS011;49390;51.380;0.098;2024-02-21T00:37:37;8.50;;;3.78;;
63259;SDS011;49390;51.380;0.098;2024-02-21T00:40:05;8.55;;;2.70;;
63259;SDS011;49390;51.380;0.098;2024-02-21T00:42:33;6.40;;;2.75;;
63259;SDS011;49390;51.380;0.098;2024-02-21T00:45:01;13.88;;;3.00;;
63259;SDS011;49390;51.380;0.098;2024-02-21T00:47:30;9.13;;;2.67;;
63259;SDS011;49390;51.380;0.098;2024-02-21T00:49:58;7.97;;;2.58;;
63259;SDS011;49390;51.380;0.098;2024-02-21T00:52:26;15.27;;;3.20;;
63259;SDS011;49390;51.380;0.098;2024-02-21T00:54:54;9.02;;;3.00;;
63259;SDS011;49390;51.380;0.098;2024-02-21T00:57:21;7.70;;;2.72;;
63259;SDS011;49390;51.380;0.098;2024-02-21T00:59:51;9.65;;;2.60;;
63259;SDS011;49390;51.380;0.098;2024-02-21T01:02:18;7.28;;;2.60;;
63259;SDS011;49390;51.380;0.098;2024-02-21T01:04:47;10.93;;;2.80;;
63259;SDS011;49390;51.380;0.098;2024-02-21T01:09:40;12.23;;;3.25;;
63259;SDS011;49390;51.380;0.098;2024-02-21T01:12:08;6.55;;;2.78;;
63259;SDS011;49390;51.380;0.098;2024-02-21T01:14:35;8.20;;;2.88;;
63259;SDS011;49390;51.380;0.098;2024-02-21T01:17:03;8.15;;;2.83;;
63259;SDS011;49390;51.380;0.098;2024-02-21T01:19:33;8.57;;;2.38;;
63259;SDS011;49390;51.380;0.098;2024-02-21T01:22:01;12.30;;;3.50;;
63259;SDS011;49390;51.380;0.098;2024-02-21T01:24:28;11.20;;;3.13;;
63259;SDS011;49390;51.380;0.098;2024-02-21T01:26:56;10.77;;;3.00;;
63259;SDS011;49390;51.380;0.098;2024-02-21T01:29:24;9.43;;;3.00;;
63259;SDS011;49390;51.380;0.098;2024-02-21T01:31:52;10.23;;;3.22;;
63259;SDS011;49390;51.380;0.098;2024-02-21T01:34:20;10.98;;;3.42;;
63259;SDS011;49390;51.380;0.098;2024-02-21T01:36:48;13.98;;;4.00;;
63259;SDS011;49390;51.380;0.098;2024-02-21T01:39:15;11.90;;;3.33;;
63259;SDS011;49390;51.380;0.098;2024-02-21T01:41:43;9.60;;;2.70;;
63259;SDS011;49390;51.380;0.098;2024-02-21T01:44:11;11.05;;;3.00;;
63259;SDS011;49390;51.380;0.098;2024-02-21T01:46:39;10.63;;;3.08;;
63259;SDS011;49390;51.380;0.098;2024-02-21T01:49:07;11.73;;;3.33;;
63259;SDS011;49390;51.380;0.098;2024-02-21T01:51:35;10.43;;;2.97;;
63259;SDS011;49390;51.380;0.098;2024-02-21T01:54:03;9.52;;;2.95;;
63259;SDS011;49390;51.380;0.098;2024-02-21T01:56:31;11.07;;;3.08;;
63259;SDS011;49390;51.380;0.098;2024-02-21T01:58:59;11.85;;;3.10;;
63259;SDS011;49390;51.380;0.098;2024-02-21T02:01:27;15.07;;;3.58;;
63259;SDS011;49390;51.380;0.098;2024-02-21T02:03:56;9.18;;;3.15;;
63259;SDS011;49390;51.380;0.098;2024-02-21T02:06:26;9.75;;;3.20;;
63259;SDS011;49390;51.380;0.098;2024-02-21T02:08:54;9.68;;;3.40;;
63259;SDS011;49390;51.380;0.098;2024-02-21T02:11:22;11.02;;;3.17;;
63259;SDS011;49390;51.380;0.098;2024-02-21T02:13:49;10.20;;;3.10;;
63259;SDS011;49390;51.380;0.098;2024-02-21T02:16:18;10.65;;;3.58;;
63259;SDS011;49390;51.380;0.098;2024-02-21T02:18:45;8.13;;;2.70;;
63259;SDS011;49390;51.380;0.098;2024-02-21T02:21:15;12.82;;;3.88;;
63259;SDS011;49390;51.380;0.098;2024-02-21T02:24:00;11.52;;;3.00;;
63259;SDS011;49390;51.380;0.098;2024-02-21T02:26:28;10.70;;;2.95;;
63259;SDS011;49390;51.380;0.098;2024-02-21T02:28:56;11.50;;;3.67;;
63259;SDS011;49390;51.380;0.098;2024-02-21T02:31:24;11.27;;;3.20;;
63259;SDS011;49390;51.380;0.098;2024-02-21T02:33:52;18.35;;;3.92;;
63259;SDS011;49390;51.380;0.098;2024-02-21T02:36:20;10.45;;;3.20;;
63259;SDS011;49390;51.380;0.098;2024-02-21T02:38:48;11.10;;;3.35;;
63259;SDS011;49390;51.380;0.098;2024-02-21T02:41:16;13.13;;;3.38;;
63259;SDS011;49390;51.380;0.098;2024-02-21T02:43:43;14.48;;;3.95;;
63259;SDS011;49390;51.380;0.098;2024-02-21T02:46:11;19.48;;;5.32;;
63259;SDS011;49390;51.380;0.098;2024-02-21T02:48:39;11.93;;;3.40;;
63259;SDS011;49390;51.380;0.098;2024-02-21T02:51:07;10.57;;;3.08;;
63259;SDS011;49390;51.380;0.098;2024-02-21T02:53:35;14.70;;;4.10;;
63259;SDS011;49390;51.380;0.098;2024-02-21T02:56:03;11.60;;;3.08;;
63259;SDS011;49390;51.380;0.098;2024-02-21T02:58:31;17.80;;;4.13;;
63259;SDS011;49390;51.380;0.098;2024-02-21T03:00:59;12.90;;;3.83;;
63259;SDS011;49390;51.380;0.098;2024-02-21T03:03:27;12.43;;;3.42;;
63259;SDS011;49390;51.380;0.098;2024-02-21T03:05:54;10.32;;;3.10;;
63259;SDS011;49390;51.380;0.098;2024-02-21T03:08:22;13.73;;;3.30;;
63259;SDS011;49390;51.380;0.098;2024-02-21T03:10:50;8.13;;;3.33;;
63259;SDS011;49390;51.380;0.098;2024-02-21T03:13:18;8.80;;;3.13;;
63259;SDS011;49390;51.380;0.098;2024-02-21T03:15:46;14.00;;;4.20;;
63259;SDS011;49390;51.380;0.098;2024-02-21T03:18:14;12.55;;;3.05;;
63259;SDS011;49390;51.380;0.098;2024-02-21T03:20:42;12.32;;;3.22;;
63259;SDS011;49390;51.380;0.098;2024-02-21T03:23:10;11.43;;;2.88;;
63259;SDS011;49390;51.380;0.098;2024-02-21T03:25:37;8.02;;;2.95;;
63259;SDS011;49390;51.380;0.098;2024-02-21T03:28:05;8.43;;;2.85;;
63259;SDS011;49390;51.380;0.098;2024-02-21T03:30:33;9.73;;;3.28;;
63259;SDS011;49390;51.380;0.098;2024-02-21T03:33:01;9.52;;;2.83;;
63259;SDS011;49390;51.380;0.098;2024-02-21T03:35:30;10.18;;;2.85;;
63259;SDS011;49390;51.380;0.098;2024-02-21T03:37:57;11.13;;;3.28;;
63259;SDS011;49390;51.380;0.098;2024-02-21T03:40:25;9.80;;;3.40;;
63259;SDS011;49390;51.380;0.098;2024-02-21T03:42:53;9.45;;;4.60;;
63259;SDS011;49390;51.380;0.098;2024-02-21T03:45:21;12.13;;;3.13;;
63259;SDS011;49390;51.380;0.098;2024-02-21T03:47:48;9.95;;;2.67;;
63259;SDS011;49390;51.380;0.098;2024-02-21T03:50:16;9.45;;;2.97;;
63259;SDS011;49390;51.380;0.098;2024-02-21T03:52:44;10.98;;;3.15;;
63259;SDS011;49390;51.380;0.098;2024-02-21T03:55:12;8.98;;;2.55;;
63259;SDS011;49390;51.380;0.098;2024-02-21T03:57:40;10.38;;;2.92;;
63259;SDS011;49390;51.380;0.098;2024-02-21T04:00:08;9.77;;;2.83;;
63259;SDS011;49390;51.380;0.098;2024-02-21T04:02:38;11.32;;;3.53;;
63259;SDS011;49390;51.380;0.098;2024-02-21T04:05:06;10.48;;;2.67;;
63259;SDS011;49390;51.380;0.098;2024-02-21T04:07:38;8.85;;;2.83;;
63259;SDS011;49390;51.380;0.098;2024-02-21T04:10:06;11.40;;;3.00;;
63259;SDS011;49390;51.380;0.098;2024-02-21T04:12:34;11.93;;;3.22;;
63259;SDS011;49390;51.380;0.098;2024-02-21T04:15:02;8.57;;;2.60;;
63259;SDS011;49390;51.380;0.098;2024-02-21T04:17:30;9.70;;;2.55;;
63259;SDS011;49390;51.380;0.098;2024-02-21T04:20:03;8.90;;;2.60;;
63259;SDS011;49390;51.380;0.098;2024-02-21T04:22:33;7.40;;;2.92;;
63259;SDS011;49390;51.380;0.098;2024-02-21T04:25:02;9.15;;;2.92;;
63259;SDS011;49390;51.380;0.098;2024-02-21T04:27:30;10.68;;;3.03;;
63259;SDS011;49390;51.380;0.098;2024-02-21T04:29:59;8.60;;;2.47;;
63259;SDS011;49390;51.380;0.098;2024-02-21T04:32:27;10.65;;;3.08;;
63259;SDS011;49390;51.380;0.098;2024-02-21T04:34:55;8.95;;;2.40;;
63259;SDS011;49390;51.380;0.098;2024-02-21T04:37:22;10.82;;;2.65;;
63259;SDS011;49390;51.380;0.098;2024-02-21T04:39:51;9.52;;;2.55;;
63259;SDS011;49390;51.380;0.098;2024-02-21T04:42:19;5.97;;;2.75;;
63259;SDS011;49390;51.380;0.098;2024-02-21T04:44:47;9.20;;;2.60;;
63259;SDS011;49390;51.380;0.098;2024-02-21T04:47:14;8.13;;;2.80;;
63259;SDS011;49390;51.380;0.098;2024-02-21T04:49:42;6.55;;;2.45;;
63259;SDS011;49390;51.380;0.098;2024-02-21T04:52:10;9.52;;;2.75;;
63259;SDS011;49390;51.380;0.098;2024-02-21T04:54:38;5.22;;;2.90;;
63259;SDS011;49390;51.380;0.098;2024-02-21T04:57:06;7.53;;;3.38;;
63259;SDS011;49390;51.380;0.098;2024-02-21T04:59:34;6.72;;;2.90;;
63259;SDS011;49390;51.380;0.098;2024-02-21T05:02:02;8.30;;;2.28;;
63259;SDS011;49390;51.380;0.098;2024-02-21T05:04:30;7.68;;;2.70;;
63259;SDS011;49390;51.380;0.098;2024-02-21T05:06:59;7.25;;;3.45;;
63259;SDS011;49390;51.380;0.098;2024-02-21T05:09:28;6.97;;;2.33;;
63259;SDS011;49390;51.380;0.098;2024-02-21T05:11:56;6.32;;;2.47;;
63259;SDS011;49390;51.380;0.098;2024-02-21T05:14:26;8.30;;;2.60;;
63259;SDS011;49390;51.380;0.098;2024-02-21T05:16:54;8.00;;;2.70;;
63259;SDS011;49390;51.380;0.098;2024-02-21T05:19:22;7.13;;;2.65;;
63259;SDS011;49390;51.380;0.098;2024-02-21T05:21:49;8.48;;;3.28;;
63259;SDS011;49390;51.380;0.098;2024-02-21T05:24:17;6.43;;;2.58;;
63259;SDS011;49390;51.380;0.098;2024-02-21T05:26:45;6.20;;;2.45;;
63259;SDS011;49390;51.380;0.098;2024-02-21T05:29:13;6.57;;;2.20;;
63259;SDS011;49390;51.380;0.098;2024-02-21T05:34:21;8.40;;;2.47;;
63259;SDS011;49390;51.380;0.098;2024-02-21T05:36:49;5.38;;;2.25;;
63259;SDS011;49390;51.380;0.098;2024-02-21T05:39:17;7.50;;;2.55;;
63259;SDS011;49390;51.380;0.098;2024-02-21T05:41:45;7.25;;;2.60;;
63259;SDS011;49390;51.380;0.098;2024-02-21T05:44:13;6.13;;;2.30;;
63259;SDS011;49390;51.380;0.098;2024-02-21T05:46:41;5.68;;;2.47;;
63259;SDS011;49390;51.380;0.098;2024-02-21T05:49:10;10.73;;;3.00;;
63259;SDS011;49390;51.380;0.098;2024-02-21T05:51:38;8.93;;;2.50;;
63259;SDS011;49390;51.380;0.098;2024-02-21T05:54:05;9.32;;;3.10;;
63259;SDS011;49390;51.380;0.098;2024-02-21T05:56:34;6.78;;;3.08;;
63259;SDS011;49390;51.380;0.098;2024-02-21T05:59:02;9.32;;;2.50;;
63259;SDS011;49390;51.380;0.098;2024-02-21T06:01:30;7.93;;;2.60;;
63259;SDS011;49390;51.380;0.098;2024-02-21T06:03:58;6.32;;;2.50;;
63259;SDS011;49390;51.380;0.098;2024-02-21T06:06:25;6.85;;;2.50;;
63259;SDS011;49390;51.380;0.098;2024-02-21T06:08:53;6.38;;;2.40;;
63259;SDS011;49390;51.380;0.098;2024-02-21T06:11:21;5.38;;;2.38;;
63259;SDS011;49390;51.380;0.098;2024-02-21T06:13:49;7.10;;;2.20;;
63259;SDS011;49390;51.380;0.098;2024-02-21T06:16:17;6.38;;;2.40;;
63259;SDS011;49390;51.380;0.098;2024-02-21T06:18:44;4.63;;;2.28;;
63259;SDS011;49390;51.380;0.098;2024-02-21T06:21:12;5.50;;;2.53;;
63259;SDS011;49390;51.380;0.098;2024-02-21T06:23:40;5.47;;;2.15;;
63259;SDS011;49390;51.380;0.098;2024-02-21T06:26:08;4.10;;;2.00;;
63259;SDS011;49390;51.380;0.098;2024-02-21T06:28:35;4.45;;;1.83;;
63259;SDS011;49390;51.380;0.098;2024-02-21T06:31:03;4.68;;;2.20;;
63259;SDS011;49390;51.380;0.098;2024-02-21T06:33:31;5.65;;;2.10;;
63259;SDS011;49390;51.380;0.098;2024-02-21T06:35:59;4.47;;;1.90;;
63259;SDS011;49390;51.380;0.098;2024-02-21T06:38:27;6.70;;;1.90;;
63259;SDS011;49390;51.380;0.098;2024-02-21T06:40:55;2.42;;;1.65;;
63259;SDS011;49390;51.380;0.098;2024-02-21T06:43:23;5.35;;;2.05;;
63259;SDS011;49390;51.380;0.098;2024-02-21T06:45:50;4.72;;;1.70;;
63259;SDS011;49390;51.380;0.098;2024-02-21T06:48:18;3.15;;;1.83;;
63259;SDS011;49390;51.380;0.098;2024-02-21T06:50:47;4.10;;;1.90;;
63259;SDS011;49390;51.380;0.098;2024-02-21T06:53:15;4.05;;;1.80;;
63259;SDS011;49390;51.380;0.098;2024-02-21T06:55:42;5.32;;;1.90;;
63259;SDS011;49390;51.380;0.098;2024-02-21T06:58:11;3.58;;;1.92;;
63259;SDS011;49390;51.380;0.098;2024-02-21T07:00:39;4.35;;;1.88;;
63259;SDS011;49390;51.380;0.098;2024-02-21T07:03:08;4.97;;;1.90;;
63259;SDS011;49390;51.380;0.098;2024-02-21T07:05:35;3.83;;;1.80;;
63259;SDS011;49390;51.380;0.098;2024-02-21T07:08:04;3.38;;;1.80;;
63259;SDS011;49390;51.380;0.098;2024-02-21T07:10:32;3.63;;;1.60;;
63259;SDS011;49390;51.380;0.098;2024-02-21T07:13:00;5.55;;;1.83;;
63259;SDS011;49390;51.380;0.098;2024-02-21T07:15:28;4.68;;;2.92;;
63259;SDS011;49390;51.380;0.098;2024-02-21T07:17:58;3.10;;;1.67;;
63259;SDS011;49390;51.380;0.098;2024-02-21T07:20:26;3.65;;;1.55;;
63259;SDS011;49390;51.380;0.098;2024-02-21T07:22:54;4.05;;;2.10;;
63259;SDS011;49390;51.380;0.098;2024-02-21T07:25:22;2.38;;;1.60;;
63259;SDS011;49390;51.380;0.098;2024-02-21T07:27:50;3.70;;;1.80;;
63259;SDS011;49390;51.380;0.098;2024-02-21T07:30:18;2.47;;;1.55;;
63259;SDS011;49390;51.380;0.098;2024-02-21T07:32:48;3.72;;;2.05;;
63259;SDS011;49390;51.380;0.098;2024-02-21T07:35:18;4.38;;;1.80;;
63259;SDS011;49390;51.380;0.098;2024-02-21T07:37:46;6.35;;;2.42;;
63259;SDS011;49390;51.380;0.098;2024-02-21T07:40:14;4.18;;;2.00;;
63259;SDS011;49390;51.380;0.098;2024-02-21T07:42:43;3.15;;;1.63;;
63259;SDS011;49390;51.380;0.098;2024-02-21T07:45:17;5.00;;;2.13;;
63259;SDS011;49390;51.380;0.098;2024-02-21T07:47:46;8.23;;;2.97;;
63259;SDS011;49390;51.380;0.098;2024-02-21T07:50:14;5.30;;;2.33;;
63259;SDS011;49390;51.380;0.098;2024-02-21T07:52:42;4.15;;;1.90;;
63259;SDS011;49390;51.380;0.098;2024-02-21T07:55:10;6.28;;;2.55;;
63259;SDS011;49390;51.380;0.098;2024-02-21T07:57:38;6.72;;;2.20;;
63259;SDS011;49390;51.380;0.098;2024-02-21T08:00:06;4.32;;;1.92;;
63259;SDS011;49390;51.380;0.098;2024-02-21T08:02:39;5.90;;;2.20;;
63259;SDS011;49390;51.380;0.098;2024-02-21T08:05:09;4.95;;;2.33;;
63259;SDS011;49390;51.380;0.098;2024-02-21T08:07:39;7.25;;;2.30;;
63259;SDS011;49390;51.380;0.098;2024-02-21T08:10:07;7.93;;;2.47;;
63259;SDS011;49390;51.380;0.098;2024-02-21T08:12:35;5.75;;;2.15;;
63259;SDS011;49390;51.380;0.098;2024-02-21T08:15:03;4.88;;;2.30;;
63259;SDS011;49390;51.380;0.098;2024-02-21T08:17:31;5.85;;;2.90;;
63259;SDS011;49390;51.380;0.098;2024-02-21T08:19:59;6.00;;;2.63;;
63259;SDS011;49390;51.380;0.098;2024-02-21T08:22:27;5.43;;;2.20;;
63259;SDS011;49390;51.380;0.098;2024-02-21T08:24:55;4.60;;;2.33;;
63259;SDS011;49390;51.380;0.098;2024-02-21T08:27:23;5.13;;;2.85;;
63259;SDS011;49390;51.380;0.098;2024-02-21T08:29:51;7.20;;;2.33;;
63259;SDS011;49390;51.380;0.098;2024-02-21T08:32:20;4.47;;;2.20;;
63259;SDS011;49390;51.380;0.098;2024-02-21T08:34:48;7.13;;;3.15;;
63259;SDS011;49390;51.380;0.098;2024-02-21T08:37:16;5.35;;;2.25;;
63259;SDS011;49390;51.380;0.098;2024-02-21T08:39:47;7.30;;;2.50;;
63259;SDS011;49390;51.380;0.098;2024-02-21T08:42:14;10.38;;;2.75;;
63259;SDS011;49390;51.380;0.098;2024-02-21T08:44:42;5.40;;;2.30;;
63259;SDS011;49390;51.380;0.098;2024-02-21T08:47:10;5.82;;;2.45;;
63259;SDS011;49390;51.380;0.098;2024-02-21T08:49:38;5.45;;;2.28;;
63259;SDS011;49390;51.380;0.098;2024-02-21T08:52:06;5.85;;;2.25;;
63259;SDS011;49390;51.380;0.098;2024-02-21T08:54:34;6.32;;;2.25;;
63259;SDS011;49390;51.380;0.098;2024-02-21T08:57:02;6.25;;;2.15;;
63259;SDS011;49390;51.380;0.098;2024-02-21T08:59:31;7.53;;;2.65;;
63259;SDS011;49390;51.380;0.098;2024-02-21T09:01:59;4.60;;;1.90;;
63259;SDS011;49390;51.380;0.098;2024-02-21T09:04:27;3.35;;;1.92;;
63259;SDS011;49390;51.380;0.098;2024-02-21T09:06:55;6.30;;;2.20;;
63259;SDS011;49390;51.380;0.098;2024-02-21T09:09:23;5.90;;;2.20;;
63259;SDS011;49390;51.380;0.098;2024-02-21T09:11:54;4.85;;;2.22;;
63259;SDS011;49390;51.380;0.098;2024-02-21T09:14:22;5.53;;;1.90;;
63259;SDS011;49390;51.380;0.098;2024-02-21T09:16:50;4.93;;;1.90;;
63259;SDS011;49390;51.380;0.098;2024-02-21T09:19:18;7.57;;;1.85;;
63259;SDS011;49390;51.380;0.098;2024-02-21T09:21:46;5.75;;;1.90;;
63259;SDS011;49390;51.380;0.098;2024-02-21T09:24:14;6.30;;;2.03;;
63259;SDS011;49390;51.380;0.098;2024-02-21T09:26:41;6.07;;;1.90;;
63259;SDS011;49390;51.380;0.098;2024-02-21T09:29:09;4.38;;;1.90;;
63259;SDS011;49390;51.380;0.098;2024-02-21T09:31:37;4.15;;;1.90;;
63259;SDS011;49390;51.380;0.098;2024-02-21T09:34:06;6.38;;;2.00;;
63259;SDS011;49390;51.380;0.098;2024-02-21T09:36:34;5.68;;;2.10;;
63259;SDS011;49390;51.380;0.098;2024-02-21T09:39:02;4.07;;;1.98;;
63259;SDS011;49390;51.380;0.098;2024-02-21T09:41:29;5.80;;;1.92;;
63259;SDS011;49390;51.380;0.098;2024-02-21T09:43:58;6.93;;;2.10;;
63259;SDS011;49390;51.380;0.098;2024-02-21T09:46:37;7.55;;;2.00;;
63259;SDS011;49390;51.380;0.098;2024-02-21T09:49:21;3.83;;;1.70;;
63259;SDS011;49390;51.380;0.098;2024-02-21T09:51:53;5.45;;;1.90;;
63259;SDS011;49390;51.380;0.098;2024-02-21T09:54:23;4.45;;;2.33;;
63259;SDS011;49390;51.380;0.098;2024-02-21T09:56:50;5.80;;;2.35;;
63259;SDS011;49390;51.380;0.098;2024-02-21T09:59:19;3.63;;;1.50;;
63259;SDS011;49390;51.380;0.098;2024-02-21T10:01:47;5.07;;;1.65;;
63259;SDS011;49390;51.380;0.098;2024-02-21T10:04:15;4.15;;;1.70;;
63259;SDS011;49390;51.380;0.098;2024-02-21T10:06:43;6.22;;;2.00;;
63259;SDS011;49390;51.380;0.098;2024-02-21T10:09:25;3.78;;;1.40;;
63259;SDS011;49390;51.380;0.098;2024-02-21T10:12:08;3.25;;;1.60;;
63259;SDS011;49390;51.380;0.098;2024-02-21T10:14:38;3.65;;;1.58;;
63259;SDS011;49390;51.380;0.098;2024-02-21T10:17:06;4.10;;;1.92;;
63259;SDS011;49390;51.380;0.098;2024-02-21T10:19:38;2.42;;;1.55;;
63259;SDS011;49390;51.380;0.098;2024-02-21T10:22:09;6.45;;;1.60;;
63259;SDS011;49390;51.380;0.098;2024-02-21T10:24:38;4.70;;;1.65;;
63259;SDS011;49390;51.380;0.098;2024-02-21T10:27:08;5.57;;;1.55;;
63259;SDS011;49390;51.380;0.098;2024-02-21T10:29:39;3.53;;;1.50;;
63259;SDS011;49390;51.380;0.098;2024-02-21T10:32:08;3.70;;;1.92;;
63259;SDS011;49390;51.380;0.098;2024-02-21T10:34:39;4.10;;;1.70;;
63259;SDS011;49390;51.380;0.098;2024-02-21T10:39:38;3.75;;;1.60;;
63259;SDS011;49390;51.380;0.098;2024-02-21T10:42:09;3.92;;;1.70;;
63259;SDS011;49390;51.380;0.098;2024-02-21T10:44:40;2.88;;;1.35;;
63259;SDS011;49390;51.380;0.098;2024-02-21T10:47:09;3.38;;;1.80;;
63259;SDS011;49390;51.380;0.098;2024-02-21T10:49:40;1.40;;;1.27;;
63259;SDS011;49390;51.380;0.098;2024-02-21T10:54:48;4.15;;;1.88;;
63259;SDS011;49390;51.380;0.098;2024-02-21T10:57:33;3.33;;;1.63;;
63259;SDS011;49390;51.380;0.098;2024-02-21T11:00:03;3.83;;;1.40;;
63259;SDS011;49390;51.380;0.098;2024-02-21T11:02:35;2.70;;;1.15;;
63259;SDS011;49390;51.380;0.098;2024-02-21T11:05:04;4.90;;;1.55;;
63259;SDS011;49390;51.380;0.098;2024-02-21T11:07:35;2.70;;;1.35;;
63259;SDS011;49390;51.380;0.098;2024-02-21T11:10:05;3.03;;;1.42;;
63259;SDS011;49390;51.380;0.098;2024-02-21T11:12:35;2.10;;;1.30;;
63259;SDS011;49390;51.380;0.098;2024-02-21T11:15:03;3.35;;;1.45;;
63259;SDS011;49390;51.380;0.098;2024-02-21T11:17:35;1.55;;;1.15;;
63259;SDS011;49390;51.380;0.098;2024-02-21T11:20:16;3.80;;;1.27;;
63259;SDS011;49390;51.380;0.098;2024-02-21T11:22:45;2.22;;;1.20;;
63259;SDS011;49390;51.380;0.098;2024-02-21T11:25:20;1.98;;;1.15;;
63259;SDS011;49390;51.380;0.098;2024-02-21T11:27:49;2.72;;;1.20;;
63259;SDS011;49390;51.380;0.098;2024-02-21T11:30:18;4.32;;;1.40;;
63259;SDS011;49390;51.380;0.098;2024-02-21T11:33:01;1.77;;;1.00;;
63259;SDS011;49390;51.380;0.098;2024-02-21T11:35:34;1.48;;;1.05;;
63259;SDS011;49390;51.380;0.098;2024-02-21T11:38:09;2.67;;;1.30;;
63259;SDS011;49390;51.380;0.098;2024-02-21T11:40:44;2.47;;;0.97;;
63259;SDS011;49390;51.380;0.098;2024-02-21T11:43:13;1.25;;;1.10;;
63259;SDS011;49390;51.380;0.098;2024-02-21T11:45:42;3.22;;;1.45;;
63259;SDS011;49390;51.380;0.098;2024-02-21T11:48:10;3.05;;;1.23;;
63259;SDS011;49390;51.380;0.098;2024-02-21T11:50:38;1.70;;;1.30;;
63259;SDS011;49390;51.380;0.098;2024-02-21T11:53:07;2.08;;;1.15;;
63259;SDS011;49390;51.380;0.098;2024-02-21T11:55:35;0.93;;;0.82;;
63259;SDS011;49390;51.380;0.098;2024-02-21T11:58:02;4.30;;;0.90;;
63259;SDS011;49390;51.380;0.098;2024-02-21T12:00:31;4.07;;;1.30;;
63259;SDS011;49390;51.380;0.098;2024-02-21T12:02:59;3.53;;;1.20;;
63259;SDS011;49390;51.380;0.098;2024-02-21T12:05:29;2.30;;;0.85;;
63259;SDS011;49390;51.380;0.098;2024-02-21T12:07:58;1.60;;;0.95;;
63259;SDS011;49390;51.380;0.098;2024-02-21T12:10:26;2.15;;;1.02;;
63259;SDS011;49390;51.380;0.098;2024-02-21T12:13:07;3.20;;;1.17;;
63259;SDS011;49390;51.380;0.098;2024-02-21T12:15:36;3.15;;;1.10;;
63259;SDS011;49390;51.380;0.098;2024-02-21T12:18:05;1.25;;;0.90;;
63259;SDS011;49390;51.380;0.098;2024-02-21T12:20:33;1.90;;;1.23;;
63259;SDS011;49390;51.380;0.098;2024-02-21T12:23:03;1.20;;;1.10;;
63259;SDS011;49390;51.380;0.098;2024-02-21T12:25:31;2.40;;;1.00;;
63259;SDS011;49390;51.380;0.098;2024-02-21T12:28:00;2.95;;;1.23;;
63259;SDS011;49390;51.380;0.098;2024-02-21T12:30:28;3.83;;;1.27;;
63259;SDS011;49390;51.380;0.098;2024-02-21T12:32:57;3.63;;;1.40;;
63259;SDS011;49390;51.380;0.098;2024-02-21T12:35:26;3.75;;;1.55;;
63259;SDS011;49390;51.380;0.098;2024-02-21T12:37:55;1.50;;;1.10;;
63259;SDS011;49390;51.380;0.098;2024-02-21T12:40:23;1.88;;;0.80;;
63259;SDS011;49390;51.380;0.098;2024-02-21T12:42:51;1.45;;;0.70;;
63259;SDS011;49390;51.380;0.098;2024-02-21T12:45:19;2.28;;;1.15;;
63259;SDS011;49390;51.380;0.098;2024-02-21T12:47:47;3.45;;;1.10;;
63259;SDS011;49390;51.380;0.098;2024-02-21T12:50:15;1.02;;;0.93;;
63259;SDS011;49390;51.380;0.098;2024-02-21T12:52:43;1.40;;;1.13;;
63259;SDS011;49390;51.380;0.098;2024-02-21T12:55:11;1.88;;;1.02;;
63259;SDS011;49390;51.380;0.098;2024-02-21T12:57:40;2.75;;;0.80;;
63259;SDS011;49390;51.380;0.098;2024-02-21T13:00:08;2.17;;;1.00;;
63259;SDS011;49390;51.380;0.098;2024-02-21T13:02:38;1.33;;;0.90;;
63259;SDS011;49390;51.380;0.098;2024-02-21T13:05:09;3.23;;;1.20;;
63259;SDS011;49390;51.380;0.098;2024-02-21T13:07:37;4.18;;;1.30;;
63259;SDS011;49390;51.380;0.098;2024-02-21T13:10:05;1.98;;;0.90;;
63259;SDS011;49390;51.380;0.098;2024-02-21T13:12:33;2.10;;;0.90;;
63259;SDS011;49390;51.380;0.098;2024-02-21T13:15:01;2.70;;;1.10;;
63259;SDS011;49390;51.380;0.098;2024-02-21T13:17:29;2.28;;;0.95;;
63259;SDS011;49390;51.380;0.098;2024-02-21T13:19:59;1.83;;;0.95;;
63259;SDS011;49390;51.380;0.098;2024-02-21T13:22:28;0.93;;;0.90;;
63259;SDS011;49390;51.380;0.098;2024-02-21T13:24:56;3.17;;;0.95;;
63259;SDS011;49390;51.380;0.098;2024-02-21T13:27:25;1.77;;;0.90;;
63259;SDS011;49390;51.380;0.098;2024-02-21T13:29:53;1.20;;;0.93;;
63259;SDS011;49390;51.380;0.098;2024-02-21T13:32:21;0.95;;;0.60;;
63259;SDS011;49390;51.380;0.098;2024-02-21T13:34:49;0.80;;;0.80;;
63259;SDS011;49390;51.380;0.098;2024-02-21T13:37:19;2.17;;;1.10;;
63259;SDS011;49390;51.380;0.098;2024-02-21T13:39:49;1.15;;;0.90;;
63259;SDS011;49390;51.380;0.098;2024-02-21T13:42:16;1.90;;;1.10;;
63259;SDS011;49390;51.380;0.098;2024-02-21T13:44:45;2.28;;;1.30;;
63259;SDS011;49390;51.380;0.098;2024-02-21T13:47:13;1.52;;;1.00;;
63259;SDS011;49390;51.380;0.098;2024-02-21T13:49:42;0.73;;;0.73;;
63259;SDS011;49390;51.380;0.098;2024-02-21T13:52:10;2.42;;;1.60;;
63259;SDS011;49390;51.380;0.098;2024-02-21T13:54:38;1.83;;;1.00;;
63259;SDS011;49390;51.380;0.098;2024-02-21T13:57:06;1.83;;;1.00;;
63259;SDS011;49390;51.380;0.098;2024-02-21T13:59:34;1.13;;;0.82;;
63259;SDS011;49390;51.380;0.098;2024-02-21T14:02:02;1.10;;;1.00;;
63259;SDS011;49390;51.380;0.098;2024-02-21T14:04:30;1.75;;;0.98;;
63259;SDS011;49390;51.380;0.098;2024-02-21T14:06:58;3.90;;;1.02;;
63259;SDS011;49390;51.380;0.098;2024-02-21T14:09:26;2.53;;;0.85;;
63259;SDS011;49390;51.380;0.098;2024-02-21T14:11:56;4.30;;;1.20;;
63259;SDS011;49390;51.380;0.098;2024-02-21T14:14:24;1.63;;;0.90;;
63259;SDS011;49390;51.380;0.098;2024-02-21T14:16:52;1.55;;;0.90;;
63259;SDS011;49390;51.380;0.098;2024-02-21T14:19:20;3.92;;;0.98;;
63259;SDS011;49390;51.380;0.098;2024-02-21T14:21:48;1.35;;;1.00;;
63259;SDS011;49390;51.380;0.098;2024-02-21T14:24:16;2.95;;;0.98;;
63259;SDS011;49390;51.380;0.098;2024-02-21T14:26:44;4.18;;;1.33;;
63259;SDS011;49390;51.380;0.098;2024-02-21T14:29:12;0.55;;;0.55;;
63259;SDS011;49390;51.380;0.098;2024-02-21T14:31:40;1.48;;;0.98;;
63259;SDS011;49390;51.380;0.098;2024-02-21T14:34:08;0.82;;;0.60;;
63259;SDS011;49390;51.380;0.098;2024-02-21T14:36:36;3.88;;;1.20;;
63259;SDS011;49390;51.380;0.098;2024-02-21T14:39:03;3.85;;;1.33;;
63259;SDS011;49390;51.380;0.098;2024-02-21T14:41:32;2.38;;;1.08;;
63259;SDS011;49390;51.380;0.098;2024-02-21T14:44:02;3.72;;;1.08;;
63259;SDS011;49390;51.380;0.098;2024-02-21T14:46:31;2.80;;;1.20;;
63259;SDS011;49390;51.380;0.098;2024-02-21T14:49:00;2.72;;;1.10;;
63259;SDS011;49390;51.380;0.098;2024-02-21T14:51:28;3.40;;;1.20;;
63259;SDS011;49390;51.380;0.098;2024-02-21T14:53:56;3.10;;;1.45;;
63259;SDS011;49390;51.380;0.098;2024-02-21T14:56:23;1.55;;;1.05;;
63259;SDS011;49390;51.380;0.098;2024-02-21T14:58:51;1.55;;;0.82;;
63259;SDS011;49390;51.380;0.098;2024-02-21T15:01:23;3.13;;;1.02;;
63259;SDS011;49390;51.380;0.098;2024-02-21T15:03:51;2.72;;;1.45;;
63259;SDS011;49390;51.380;0.098;2024-02-21T15:06:19;1.35;;;1.00;;